createdAt,value
2023-05-28T00:00:32.544Z,8.73
2023-05-28T00:05:25.199Z,9.17
2023-05-28T00:10:17.894Z,9.50
2023-05-28T00:15:12.235Z,9.00
2023-05-28T00:20:07.351Z,9.23
2023-05-28T00:25:01.023Z,7.20
2023-05-28T00:29:53.818Z,8.67
2023-05-28T00:34:47.861Z,8.37
2023-05-28T00:39:41.255Z,8.67
2023-05-28T00:44:34.059Z,8.00
2023-05-28T00:49:26.744Z,8.23
2023-05-28T00:54:21.489Z,8.90
2023-05-28T00:59:14.433Z,8.23
2023-05-28T01:04:07.248Z,7.77
2023-05-28T01:09:00.237Z,8.50
2023-05-28T01:13:54.704Z,8.47
2023-05-28T01:18:47.560Z,8.73
2023-05-28T01:23:42.226Z,8.40
2023-05-28T01:28:35.101Z,8.67
2023-05-28T01:33:28.324Z,9.50
2023-05-28T01:38:24.432Z,8.93
2023-05-28T01:43:19.004Z,10.70
2023-05-28T01:48:11.964Z,10.00
2023-05-28T01:53:04.758Z,10.27
2023-05-28T01:57:57.809Z,9.80
2023-05-28T02:02:53.189Z,10.53
2023-05-28T02:07:47.369Z,9.93
2023-05-28T02:12:40.115Z,10.90
2023-05-28T02:17:32.739Z,10.00
2023-05-28T02:22:26.758Z,10.20
2023-05-28T02:27:21.076Z,11.10
2023-05-28T02:32:13.777Z,10.80
2023-05-28T02:37:07.620Z,12.77
2023-05-28T02:42:02.065Z,13.23
2023-05-28T02:46:54.784Z,14.43
2023-05-28T02:51:47.571Z,13.70
2023-05-28T02:57:07.454Z,13.87
2023-05-28T03:02:01.249Z,12.27
2023-05-28T03:06:54.000Z,12.03
2023-05-28T03:11:46.788Z,12.53
2023-05-28T03:16:40.891Z,11.77
2023-05-28T03:21:42.294Z,11.37
2023-05-28T03:26:37.218Z,11.00
2023-05-28T03:31:31.447Z,11.80
2023-05-28T03:36:27.932Z,11.97
2023-05-28T03:41:21.480Z,12.90
2023-05-28T03:46:14.368Z,13.00
2023-05-28T03:51:07.856Z,12.43
2023-05-28T03:56:02.200Z,14.37
2023-05-28T04:00:56.293Z,13.70
2023-05-28T04:05:49.038Z,13.43
2023-05-28T04:10:41.812Z,11.80
2023-05-28T04:15:36.073Z,11.20
2023-05-28T04:20:28.889Z,10.13
2023-05-28T04:25:21.654Z,10.03
2023-05-28T04:30:14.771Z,9.90
2023-05-28T04:35:10.157Z,9.23
2023-05-28T04:40:03.318Z,9.37
2023-05-28T04:44:56.136Z,8.80
2023-05-28T04:49:50.997Z,9.10
2023-05-28T04:54:46.075Z,8.17
2023-05-28T04:59:39.126Z,7.27
2023-05-28T05:04:31.990Z,8.10
2023-05-28T05:09:25.127Z,8.10
2023-05-28T05:14:20.140Z,6.77
2023-05-28T05:19:14.623Z,7.50
2023-05-28T05:24:07.893Z,7.03
2023-05-28T05:29:00.554Z,6.80
2023-05-28T05:33:54.663Z,7.77
2023-05-28T05:39:04.747Z,7.40
2023-05-28T05:44:25.916Z,7.67
2023-05-28T05:49:20.219Z,7.53
2023-05-28T05:54:13.296Z,7.17
2023-05-28T05:59:06.575Z,7.67
2023-05-28T06:03:59.369Z,7.50
2023-05-28T06:09:20.459Z,7.10
2023-05-28T06:14:18.794Z,7.50
2023-05-28T06:19:11.488Z,9.30
2023-05-28T06:24:04.389Z,7.47
2023-05-28T06:28:58.544Z,7.83
2023-05-28T06:33:52.841Z,7.30
2023-05-28T06:38:45.688Z,7.37
2023-05-28T06:43:39.793Z,6.73
2023-05-28T06:48:38.510Z,6.80
2023-05-28T06:53:31.182Z,7.33
2023-05-28T06:58:23.951Z,7.90
2023-05-28T07:03:44.054Z,6.77
2023-05-28T07:08:58.663Z,7.03
2023-05-28T07:13:53.577Z,6.90
2023-05-28T07:18:47.621Z,7.60
2023-05-28T07:23:41.231Z,7.53
2023-05-28T07:28:34.263Z,6.90
2023-05-28T07:33:27.088Z,6.80
2023-05-28T07:38:21.287Z,7.20
2023-05-28T07:43:17.461Z,7.70
2023-05-28T07:48:10.143Z,6.70
2023-05-28T07:53:10.133Z,6.97
2023-05-28T07:58:04.676Z,6.43
2023-05-28T08:02:58.876Z,7.00
2023-05-28T08:08:02.523Z,6.57
2023-05-28T08:12:55.251Z,6.30
2023-05-28T08:17:52.123Z,6.50
2023-05-28T08:22:47.026Z,6.60
2023-05-28T08:27:39.726Z,6.33
2023-05-28T08:32:32.641Z,6.20
2023-05-28T08:37:27.042Z,6.00
2023-05-28T08:42:42.928Z,7.10
2023-05-28T08:47:36.106Z,6.20
2023-05-28T08:52:36.063Z,6.10
2023-05-28T08:57:30.306Z,6.57
2023-05-28T09:02:27.590Z,5.97
2023-05-28T09:07:20.647Z,7.23
2023-05-28T09:12:24.113Z,6.07
2023-05-28T09:17:33.981Z,6.20
2023-05-28T09:22:28.976Z,6.50
2023-05-28T09:27:33.531Z,6.20
2023-05-28T09:32:26.764Z,6.83
2023-05-28T09:37:19.930Z,6.80
2023-05-28T09:42:13.061Z,6.53
2023-05-28T09:47:16.454Z,5.90
2023-05-28T09:52:10.840Z,6.60
2023-05-28T09:57:04.691Z,7.77
2023-05-28T10:01:59.521Z,6.70
2023-05-28T10:06:54.133Z,6.80
2023-05-28T10:11:51.791Z,6.23
2023-05-28T10:16:44.849Z,6.93
2023-05-28T10:21:37.624Z,6.80
2023-05-28T10:26:31.850Z,6.47
2023-05-28T10:31:24.833Z,6.20
2023-05-28T10:36:18.018Z,5.93
2023-05-28T10:41:10.605Z,5.80
2023-05-28T10:46:04.729Z,5.80
2023-05-28T10:50:58.060Z,6.50
2023-05-28T10:55:52.012Z,5.87
2023-05-28T11:00:45.270Z,6.93
2023-05-28T11:05:39.229Z,6.00
2023-05-28T11:10:32.657Z,6.20
2023-05-28T11:15:25.581Z,5.70
2023-05-28T11:20:19.138Z,5.67
2023-05-28T11:25:13.776Z,5.80
2023-05-28T11:30:09.438Z,5.10
2023-05-28T11:35:03.233Z,5.33
2023-05-28T11:39:58.119Z,6.57
2023-05-28T11:44:52.861Z,5.77
2023-05-28T11:49:46.229Z,5.80
2023-05-28T11:54:38.912Z,5.90
2023-05-28T11:59:31.477Z,5.60
2023-05-28T12:04:26.018Z,5.90
2023-05-28T12:09:18.722Z,6.47
2023-05-28T12:14:12.350Z,6.00
2023-05-28T12:19:06.363Z,5.33
2023-05-28T12:24:07.907Z,6.07
2023-05-28T12:29:00.908Z,5.80
2023-05-28T12:33:54.003Z,5.47
2023-05-28T12:38:46.660Z,5.63
2023-05-28T12:43:40.604Z,5.40
2023-05-28T12:48:33.257Z,5.17
2023-05-28T12:53:25.934Z,5.57
2023-05-28T12:58:18.541Z,5.93
2023-05-28T13:03:12.687Z,5.13
2023-05-28T13:08:05.405Z,5.30
2023-05-28T13:12:58.264Z,5.17
2023-05-28T13:17:50.986Z,5.10
2023-05-28T13:22:45.198Z,5.33
2023-05-28T13:27:37.872Z,5.93
2023-05-28T13:32:30.526Z,5.50
2023-05-28T13:37:23.141Z,5.57
2023-05-28T13:42:20.283Z,5.40
2023-05-28T13:47:13.129Z,4.80
2023-05-28T13:52:06.272Z,5.27
2023-05-28T13:56:59.040Z,4.80
2023-05-28T14:01:53.012Z,5.47
2023-05-28T14:06:46.068Z,4.70
2023-05-28T14:12:08.520Z,4.80
2023-05-28T14:16:52.776Z,5.50
2023-05-28T14:21:45.666Z,5.53
2023-05-28T14:26:38.234Z,5.43
2023-05-28T14:31:30.847Z,5.20
2023-05-28T14:36:24.780Z,5.70
2023-05-28T14:41:17.327Z,5.53
2023-05-28T14:46:09.917Z,5.50
2023-05-28T14:51:03.700Z,5.53
2023-05-28T14:55:57.614Z,5.40
2023-05-28T15:00:50.278Z,5.00
2023-05-28T15:05:42.955Z,5.43
2023-05-28T15:10:35.601Z,4.63
2023-05-28T15:15:29.673Z,4.87
2023-05-28T15:20:22.478Z,4.47
2023-05-28T15:25:15.432Z,5.37
2023-05-28T15:30:09.057Z,5.67
2023-05-28T15:35:04.358Z,5.00
2023-05-28T15:39:58.421Z,5.70
2023-05-28T15:44:51.172Z,5.83
2023-05-28T15:49:43.762Z,5.20
2023-05-28T15:54:38.105Z,5.50
2023-05-28T15:59:31.031Z,5.30
2023-05-28T16:04:23.920Z,4.90
2023-05-28T16:09:16.699Z,4.87
2023-05-28T16:14:11.535Z,5.77
2023-05-28T16:19:04.202Z,5.57
2023-05-28T16:23:56.766Z,5.60
2023-05-28T16:28:49.758Z,5.27
2023-05-28T16:33:43.912Z,5.90
2023-05-28T16:38:36.785Z,5.73
2023-05-28T16:43:29.677Z,5.30
2023-05-28T16:48:23.116Z,5.37
2023-05-28T16:53:18.633Z,5.43
2023-05-28T16:58:11.396Z,5.47
2023-05-28T17:03:04.436Z,5.40
2023-05-28T17:07:57.351Z,5.30
2023-05-28T17:12:51.308Z,5.70
2023-05-28T17:17:44.007Z,4.67
2023-05-28T17:22:36.747Z,5.90
2023-05-28T17:27:29.420Z,5.70
2023-05-28T17:32:23.479Z,5.90
2023-05-28T17:37:16.180Z,5.93
2023-05-28T17:42:08.809Z,5.87
2023-05-28T17:47:01.488Z,5.57
2023-05-28T17:51:55.740Z,5.80
2023-05-28T17:56:48.350Z,6.47
2023-05-28T18:01:42.014Z,5.77
2023-05-28T18:06:36.096Z,6.10
2023-05-28T18:11:30.039Z,5.83
2023-05-28T18:16:22.709Z,6.53
2023-05-28T18:21:15.411Z,6.07
2023-05-28T18:26:08.049Z,6.33
2023-05-28T18:31:02.065Z,6.90
2023-05-28T18:35:54.744Z,6.70
2023-05-28T18:40:48.301Z,6.57
2023-05-28T18:45:40.930Z,6.60
2023-05-28T18:50:35.206Z,6.87
2023-05-28T18:55:27.813Z,6.80
2023-05-28T19:00:20.469Z,7.00
2023-05-28T19:05:13.109Z,7.27
2023-05-28T19:10:07.985Z,6.83
2023-05-28T19:15:04.432Z,7.10
2023-05-28T19:19:57.164Z,6.47
2023-05-28T19:24:50.444Z,7.20
2023-05-28T19:29:44.406Z,7.60
2023-05-28T19:34:37.132Z,6.80
2023-05-28T19:39:29.898Z,7.30
2023-05-28T19:44:22.482Z,6.67
2023-05-28T19:49:18.368Z,7.00
2023-05-28T19:54:11.314Z,7.60
2023-05-28T19:59:04.112Z,7.33
2023-05-28T20:03:56.895Z,7.20
2023-05-28T20:08:51.153Z,6.60
2023-05-28T20:13:43.973Z,7.53
2023-05-28T20:18:37.326Z,6.80
2023-05-28T20:23:29.973Z,7.17
2023-05-28T20:28:24.169Z,6.73
2023-05-28T20:33:16.903Z,7.63
2023-05-28T20:38:09.635Z,7.40
2023-05-28T20:43:04.576Z,7.30
2023-05-28T20:47:58.730Z,6.80
2023-05-28T20:52:51.372Z,8.50
2023-05-28T20:57:49.069Z,7.37
2023-05-28T21:02:42.585Z,7.07
2023-05-28T21:07:36.797Z,7.60
2023-05-28T21:12:29.449Z,7.57
2023-05-28T21:17:22.211Z,7.47
2023-05-28T21:22:14.929Z,8.20
2023-05-28T21:27:09.553Z,7.10
2023-05-28T21:32:02.172Z,8.10
2023-05-28T21:36:54.945Z,8.10
2023-05-28T21:41:47.577Z,7.87
2023-05-28T21:46:41.651Z,8.40
2023-05-28T21:51:34.978Z,7.77
2023-05-28T21:56:28.538Z,7.90
2023-05-28T22:01:21.226Z,8.60
2023-05-28T22:06:15.197Z,8.40
2023-05-28T22:11:07.906Z,8.93
2023-05-28T22:16:00.718Z,8.87
2023-05-28T22:20:53.419Z,8.23
2023-05-28T22:25:48.399Z,8.13
2023-05-28T22:30:41.093Z,8.13
2023-05-28T22:35:33.895Z,8.93
2023-05-28T22:40:28.115Z,8.90
2023-05-28T22:45:22.181Z,8.33
2023-05-28T22:50:15.534Z,8.60
2023-05-28T22:55:10.839Z,8.50
2023-05-28T23:00:05.211Z,7.70
2023-05-28T23:04:59.507Z,8.43
2023-05-28T23:09:52.314Z,8.30
2023-05-28T23:14:44.902Z,8.63
2023-05-28T23:19:37.534Z,8.00
2023-05-28T23:24:31.557Z,8.53
2023-05-28T23:29:24.880Z,7.37
2023-05-28T23:34:18.747Z,8.20
2023-05-28T23:39:12.309Z,8.73
2023-05-28T23:44:06.385Z,7.90
2023-05-28T23:48:59.044Z,7.30
2023-05-28T23:53:51.690Z,7.50
2023-05-28T23:58:44.366Z,6.90
